createdAt,value
2019-01-17T06:09:41.724Z,43.90
2019-01-17T06:12:10.785Z,44.00
2019-01-17T06:14:39.797Z,44.20
2019-01-17T06:17:08.716Z,44.40
2019-01-17T06:19:37.532Z,44.40
2019-01-17T06:22:06.830Z,44.30
2019-01-17T06:24:35.985Z,44.30
2019-01-17T06:27:04.795Z,44.10
2019-01-17T06:29:33.656Z,44.10
2019-01-17T06:32:02.798Z,43.90
2019-01-17T06:34:31.514Z,43.90
2019-01-17T06:37:00.544Z,43.90
2019-01-17T06:39:29.405Z,43.90
2019-01-17T06:41:59.240Z,44.00
2019-01-17T06:44:28.303Z,44.00
2019-01-17T06:46:57.465Z,43.90
2019-01-17T06:49:26.292Z,43.90
2019-01-17T06:51:55.442Z,44.00
2019-01-17T06:54:24.156Z,43.90
2019-01-17T06:56:53.243Z,44.20
2019-01-17T06:59:22.223Z,43.90
2019-01-17T07:01:51.068Z,43.90
2019-01-17T07:04:20.377Z,43.90
2019-01-17T07:06:49.658Z,43.50
2019-01-17T07:09:18.395Z,43.70
2019-01-17T07:11:47.838Z,43.80
2019-01-17T07:14:16.979Z,44.00
2019-01-17T07:16:45.825Z,44.00
2019-01-17T07:19:15.532Z,43.40
2019-01-17T07:21:44.679Z,44.10
2019-01-17T07:24:13.870Z,43.90
2019-01-17T07:26:42.701Z,43.60
2019-01-17T07:29:11.537Z,43.50
2019-01-17T07:31:40.301Z,43.50
2019-01-17T07:34:09.002Z,43.40
2019-01-17T07:36:38.489Z,43.30
2019-01-17T07:39:08.076Z,43.30
2019-01-17T07:41:39.924Z,43.30
2019-01-17T07:44:08.688Z,43.30
2019-01-17T07:46:38.476Z,43.30
2019-01-17T07:49:07.181Z,43.20
2019-01-17T07:51:36.048Z,43.20
2019-01-17T07:54:05.635Z,43.30
2019-01-17T07:56:34.732Z,43.30
2019-01-17T07:59:04.244Z,43.60
2019-01-17T08:01:33.243Z,43.50
2019-01-17T08:04:02.767Z,43.30
2019-01-17T08:09:01.818Z,43.30
2019-01-17T08:11:30.356Z,43.20
2019-01-17T08:13:59.240Z,43.10
2019-01-17T08:16:28.393Z,43.00
2019-01-17T08:18:57.222Z,43.10
2019-01-17T08:21:26.084Z,43.00
2019-01-17T08:23:54.773Z,43.00
2019-01-17T08:26:24.548Z,43.00
2019-01-17T08:28:53.879Z,42.90
2019-01-17T08:31:22.664Z,42.90
2019-01-17T08:33:51.483Z,42.90
2019-01-17T08:36:21.424Z,42.70
2019-01-17T08:38:50.136Z,42.60
2019-01-17T08:41:19.687Z,42.80
2019-01-17T08:43:48.528Z,42.60
2019-01-17T08:46:17.346Z,42.50
2019-01-17T08:48:47.056Z,42.40
2019-01-17T08:51:16.225Z,42.60
2019-01-17T08:53:44.952Z,42.40
2019-01-17T08:56:13.935Z,42.40
2019-01-17T08:58:42.726Z,42.40
2019-01-17T09:01:11.428Z,42.10
2019-01-17T09:03:40.657Z,41.50
2019-01-17T09:06:10.272Z,42.00
2019-01-17T09:08:39.094Z,42.10
2019-01-17T09:11:07.832Z,41.90
2019-01-17T09:13:36.620Z,41.90
2019-01-17T09:16:05.256Z,41.80
2019-01-17T09:18:35.052Z,42.00
2019-01-17T09:21:03.793Z,41.80
2019-01-17T09:23:33.015Z,41.70
2019-01-17T09:26:07.317Z,41.50
2019-01-17T09:28:30.883Z,42.00
2019-01-17T09:31:00.118Z,42.00
2019-01-17T09:33:30.248Z,42.10
2019-01-17T09:35:59.831Z,42.30
2019-01-17T09:38:28.543Z,42.50
2019-01-17T09:40:57.867Z,42.00
2019-01-17T09:43:26.710Z,42.20
2019-01-17T09:45:55.699Z,42.10
2019-01-17T09:48:24.873Z,41.90
2019-01-17T09:50:54.514Z,41.70
2019-01-17T09:53:23.225Z,41.90
2019-01-17T09:55:51.983Z,41.80
2019-01-17T09:58:21.177Z,41.60
2019-01-17T10:00:50.698Z,41.70
2019-01-17T10:03:20.921Z,41.80
2019-01-17T10:05:50.502Z,42.00
2019-01-17T10:08:19.613Z,41.70
2019-01-17T10:10:49.210Z,41.50
2019-01-17T10:13:18.357Z,41.30
2019-01-17T10:15:53.534Z,41.10
2019-01-17T10:19:30.899Z,41.30
2019-01-17T10:22:18.442Z,41.60
2019-01-17T10:26:02.793Z,41.60
2019-01-17T10:28:49.777Z,41.40
2019-01-17T10:31:35.559Z,40.90
2019-01-17T10:34:52.482Z,41.10
2019-01-17T10:39:38.319Z,40.60
2019-01-17T10:42:21.927Z,41.00
2019-01-17T10:47:16.152Z,40.40
2019-01-17T10:49:56.794Z,40.50
2019-01-17T10:52:50.520Z,40.60
2019-01-17T10:55:31.849Z,40.60
2019-01-17T10:58:18.276Z,40.70
2019-01-17T11:01:01.630Z,40.40
2019-01-17T11:05:49.685Z,40.80
2019-01-17T11:08:35.013Z,40.30
2019-01-17T11:13:21.971Z,40.70
2019-01-17T11:16:02.267Z,40.40
2019-01-17T11:18:45.303Z,40.70
2019-01-17T11:22:26.903Z,40.90
2019-01-17T11:26:05.931Z,41.00
2019-01-17T11:28:48.865Z,41.20
2019-01-17T11:31:41.392Z,41.30
2019-01-17T11:34:53.118Z,41.60
2019-01-17T11:38:41.280Z,41.10
2019-01-17T11:41:25.569Z,41.10
2019-01-17T11:44:09.068Z,40.40
2019-01-17T11:46:54.271Z,40.60
2019-01-17T11:50:07.959Z,40.60
2019-01-17T11:53:19.043Z,40.80
2019-01-17T11:55:58.956Z,40.80
2019-01-17T12:00:42.159Z,41.20
2019-01-17T12:03:22.504Z,41.00
2019-01-17T12:05:51.596Z,40.00
2019-01-17T12:08:20.316Z,40.10
2019-01-17T12:10:49.443Z,39.90
2019-01-17T12:13:18.160Z,39.80
2019-01-17T12:15:47.311Z,39.70
2019-01-17T12:18:16.949Z,39.60
2019-01-17T12:20:46.072Z,39.60
2019-01-17T12:23:14.985Z,39.70
2019-01-17T12:25:43.673Z,39.50
2019-01-17T12:28:12.370Z,39.80
2019-01-17T12:30:42.941Z,39.60
2019-01-17T12:33:12.044Z,39.60
2019-01-17T12:35:40.797Z,39.70
2019-01-17T12:38:10.741Z,39.30
2019-01-17T12:40:39.889Z,39.30
2019-01-17T12:43:10.554Z,39.20
2019-01-17T12:45:39.470Z,39.30
2019-01-17T12:48:10.358Z,39.40
2019-01-17T12:50:39.921Z,39.20
2019-01-17T12:53:08.655Z,39.50
2019-01-17T12:55:37.505Z,39.80
2019-01-17T12:58:06.274Z,39.00
2019-01-17T13:00:37.060Z,39.10
2019-01-17T13:03:06.208Z,39.30
2019-01-17T13:05:35.402Z,39.10
2019-01-17T13:08:05.161Z,39.20
2019-01-17T13:10:34.018Z,39.50
2019-01-17T13:13:05.156Z,39.60
2019-01-17T13:15:34.054Z,38.80
2019-01-17T13:18:02.763Z,39.10
2019-01-17T13:20:32.595Z,38.80
2019-01-17T13:25:30.840Z,38.70
2019-01-17T13:28:00.052Z,38.90
2019-01-17T13:30:30.792Z,39.00
2019-01-17T13:33:00.328Z,39.20
2019-01-17T13:35:29.181Z,38.60
2019-01-17T13:37:58.317Z,38.70
2019-01-17T13:40:27.448Z,38.90
2019-01-17T13:42:57.754Z,39.10
2019-01-17T13:45:27.592Z,38.80
2019-01-17T13:47:56.394Z,38.70
2019-01-17T13:50:25.519Z,39.00
2019-01-17T13:52:54.728Z,38.50
2019-01-17T13:55:25.776Z,38.70
2019-01-17T13:57:54.946Z,38.50
2019-01-17T14:00:24.093Z,39.40
2019-01-17T14:02:52.842Z,38.70
2019-01-17T14:05:21.699Z,38.80
2019-01-17T14:07:50.587Z,38.70
2019-01-17T14:10:19.983Z,38.40
2019-01-17T14:12:48.859Z,38.50
2019-01-17T14:15:20.108Z,38.50
2019-01-17T14:17:49.188Z,38.80
2019-01-17T14:20:18.043Z,38.80
2019-01-17T14:22:46.862Z,38.80
2019-01-17T14:25:16.612Z,38.40
2019-01-17T14:27:47.011Z,38.80
2019-01-17T14:30:22.979Z,38.40
2019-01-17T14:32:51.886Z,38.30
2019-01-17T14:35:21.021Z,38.20
2019-01-17T14:37:49.865Z,39.20
2019-01-17T14:40:18.707Z,38.70
2019-01-17T14:42:48.654Z,38.60
2019-01-17T14:45:18.435Z,38.40
2019-01-17T14:47:47.804Z,38.70
2019-01-17T14:50:19.235Z,38.60
2019-01-17T14:52:48.095Z,38.80
2019-01-17T14:55:17.273Z,38.70
2019-01-17T14:57:46.563Z,38.70
2019-01-17T15:00:17.878Z,38.50
2019-01-17T15:02:46.934Z,38.70
2019-01-17T15:05:15.791Z,38.80
2019-01-17T15:07:44.633Z,38.60
2019-01-17T15:10:16.196Z,38.50
2019-01-17T15:12:44.981Z,38.40
2019-01-17T15:15:14.141Z,38.60
2019-01-17T15:17:42.982Z,38.30
2019-01-17T15:20:14.566Z,38.50
2019-01-17T15:22:44.502Z,38.40
2019-01-17T15:25:13.931Z,38.60
2019-01-17T15:27:42.771Z,38.70
2019-01-17T15:30:18.312Z,38.20
2019-01-17T15:32:47.389Z,37.90
2019-01-17T15:35:17.064Z,37.90
2019-01-17T15:37:45.952Z,38.00
2019-01-17T15:40:21.845Z,37.90
2019-01-17T15:42:50.673Z,37.50
2019-01-17T15:45:19.791Z,37.80
2019-01-17T15:47:48.650Z,37.70
2019-01-17T15:50:17.857Z,37.70
2019-01-17T15:52:47.029Z,37.50
2019-01-17T15:55:16.169Z,38.40
2019-01-17T15:57:45.072Z,37.80
2019-01-17T16:00:20.668Z,37.70
2019-01-17T16:02:49.577Z,37.80
2019-01-17T16:05:18.416Z,37.90
2019-01-17T16:07:50.415Z,38.20
2019-01-17T16:10:20.056Z,38.10
2019-01-17T16:12:48.938Z,38.10
2019-01-17T16:15:20.255Z,38.00
2019-01-17T16:17:49.066Z,38.20
2019-01-17T16:20:18.975Z,37.80
2019-01-17T16:22:48.083Z,37.60
2019-01-17T16:25:16.871Z,37.80
2019-01-17T16:27:52.751Z,38.40
2019-01-17T16:30:18.537Z,37.70
2019-01-17T16:32:47.523Z,38.70
2019-01-17T16:35:16.472Z,37.80
2019-01-17T16:37:45.698Z,38.00
2019-01-17T16:40:15.534Z,37.80
2019-01-17T16:42:44.810Z,37.70
2019-01-17T16:45:15.745Z,38.00
2019-01-17T16:47:44.618Z,37.50
2019-01-17T16:50:17.608Z,37.20
2019-01-17T16:52:48.256Z,37.20
2019-01-17T16:55:17.679Z,37.30
2019-01-17T16:57:49.173Z,37.10
2019-01-17T17:00:33.412Z,37.00
2019-01-17T17:03:02.144Z,36.90
2019-01-17T17:05:30.978Z,36.90
2019-01-17T17:08:00.055Z,37.10
2019-01-17T17:10:29.291Z,37.10
2019-01-17T17:12:59.094Z,36.40
2019-01-17T17:15:28.304Z,36.50
2019-01-17T17:17:58.389Z,36.20
2019-01-17T17:20:27.479Z,36.00
2019-01-17T17:22:56.928Z,36.10
2019-01-17T17:25:27.215Z,36.10
2019-01-17T17:27:56.914Z,36.00
2019-01-17T17:30:27.838Z,36.00
2019-01-17T17:32:57.180Z,36.20
2019-01-17T17:35:26.351Z,36.40
2019-01-17T17:37:55.668Z,36.40
2019-01-17T17:40:30.207Z,36.30
2019-01-17T17:42:59.185Z,36.50
2019-01-17T17:45:30.181Z,36.60
2019-01-17T17:48:00.755Z,36.70
2019-01-17T17:50:29.967Z,36.80
2019-01-17T17:53:00.827Z,36.70
2019-01-17T17:55:29.647Z,36.80
2019-01-17T17:58:02.110Z,36.70
2019-01-17T18:00:33.698Z,36.70
2019-01-17T18:03:02.816Z,36.80
2019-01-17T18:05:31.713Z,36.80
2019-01-17T18:08:00.587Z,36.90
2019-01-17T18:10:30.002Z,36.40
2019-01-17T18:12:58.991Z,36.80
2019-01-17T18:15:27.986Z,36.30
2019-01-17T18:17:56.796Z,36.60
2019-01-17T18:20:25.923Z,36.50
2019-01-17T18:22:55.556Z,36.50
2019-01-17T18:25:24.323Z,36.50
2019-01-17T18:27:53.748Z,36.40
2019-01-17T18:30:23.527Z,36.50
2019-01-17T18:32:54.015Z,36.60
2019-01-17T18:35:23.626Z,36.70
2019-01-17T18:37:52.449Z,36.70
2019-01-17T18:40:22.117Z,36.90
2019-01-17T18:42:51.196Z,37.10
2019-01-17T18:45:21.859Z,37.40
2019-01-17T18:47:50.624Z,37.20
2019-01-17T18:50:23.565Z,37.20
2019-01-17T18:52:52.575Z,36.90
2019-01-17T18:55:22.347Z,37.50
2019-01-17T18:57:51.480Z,37.20
2019-01-17T19:00:25.540Z,36.40
2019-01-17T19:02:54.459Z,37.00
2019-01-17T19:05:23.810Z,36.80
2019-01-17T19:07:52.652Z,36.70
2019-01-17T19:10:21.518Z,36.70
2019-01-17T19:12:51.155Z,36.40
2019-01-17T19:15:22.322Z,36.50
2019-01-17T19:17:51.494Z,36.40
2019-01-17T19:20:21.340Z,36.40
2019-01-17T19:22:50.710Z,36.80
2019-01-17T19:25:19.714Z,37.30
2019-01-17T19:27:49.479Z,36.30
2019-01-17T19:30:21.168Z,36.50
2019-01-17T19:32:50.088Z,36.60
2019-01-17T19:35:18.860Z,36.90
2019-01-17T19:37:48.281Z,36.50
2019-01-17T19:40:19.504Z,36.80
2019-01-17T19:42:48.823Z,36.90
2019-01-17T19:45:18.632Z,36.70
2019-01-17T19:47:47.475Z,36.70
2019-01-17T19:50:20.446Z,36.70
2019-01-17T19:52:49.343Z,36.50
2019-01-17T19:55:19.209Z,36.10
2019-01-17T19:57:48.065Z,36.40
2019-01-17T20:00:17.283Z,36.30
2019-01-17T20:02:46.148Z,36.20
2019-01-17T20:05:17.016Z,36.50
2019-01-17T20:07:45.796Z,36.40
2019-01-17T20:10:18.278Z,36.60
2019-01-17T20:12:47.222Z,37.30
2019-01-17T20:15:16.262Z,36.60
2019-01-17T20:17:45.111Z,36.80
2019-01-17T20:20:14.544Z,36.90
2019-01-17T20:22:46.656Z,36.80
2019-01-17T20:25:15.391Z,36.90
2019-01-17T20:27:44.191Z,36.90
2019-01-17T20:30:16.365Z,37.00
2019-01-17T20:32:45.687Z,36.20
2019-01-17T20:35:14.559Z,37.00
2019-01-17T20:37:43.364Z,37.10
2019-01-17T20:40:14.402Z,37.10
2019-01-17T20:42:44.099Z,37.00
2019-01-17T20:45:12.975Z,37.10
2019-01-17T20:47:43.386Z,37.30
2019-01-17T20:50:15.028Z,37.10
2019-01-17T20:55:12.607Z,37.10
2019-01-17T20:57:43.148Z,36.90
2019-01-17T21:00:15.855Z,37.10
2019-01-17T21:02:44.953Z,37.00
2019-01-17T21:05:14.712Z,37.00
2019-01-17T21:07:43.966Z,36.60
2019-01-17T21:10:15.178Z,36.70
2019-01-17T21:12:44.065Z,36.80
2019-01-17T21:15:13.313Z,36.50
2019-01-17T21:17:42.058Z,36.20
2019-01-17T21:20:12.443Z,36.60
2019-01-17T21:22:41.296Z,36.20
2019-01-17T21:25:12.831Z,36.30
2019-01-17T21:27:42.524Z,36.40
2019-01-17T21:30:14.812Z,36.40
2019-01-17T21:32:44.364Z,36.10
2019-01-17T21:35:14.583Z,36.00
2019-01-17T21:37:44.363Z,36.00
2019-01-17T21:40:15.778Z,35.70
2019-01-17T21:42:44.527Z,35.70
2019-01-17T21:45:15.347Z,36.00
2019-01-17T21:47:44.135Z,36.30
2019-01-17T21:50:15.734Z,35.70
2019-01-17T21:52:44.599Z,35.80
2019-01-17T21:55:13.470Z,36.10
